createdAt,value
2018-05-25T00:01:03.443Z,11.20
2018-05-25T00:03:31.183Z,9.27
2018-05-25T00:05:59.684Z,9.33
2018-05-25T00:08:27.436Z,9.10
2018-05-25T00:10:55.137Z,9.40
2018-05-25T00:13:22.870Z,8.70
2018-05-25T00:15:50.597Z,8.50
2018-05-25T00:18:18.332Z,9.90
2018-05-25T00:20:46.076Z,9.27
2018-05-25T00:23:13.776Z,9.50
2018-05-25T00:25:41.525Z,8.80
2018-05-25T00:28:09.244Z,8.93
2018-05-25T00:30:36.956Z,9.73
2018-05-25T00:33:04.688Z,9.87
2018-05-25T00:35:32.451Z,9.70
2018-05-25T00:38:00.181Z,11.17
2018-05-25T00:40:28.697Z,10.60
2018-05-25T00:42:56.391Z,9.70
2018-05-25T00:45:24.100Z,10.17
2018-05-25T00:47:51.844Z,9.10
2018-05-25T00:50:20.343Z,9.00
2018-05-25T00:52:48.060Z,10.80
2018-05-25T00:55:27.580Z,9.67
2018-05-25T00:57:55.284Z,9.60
2018-05-25T01:00:22.993Z,8.97
2018-05-25T01:02:50.955Z,10.00
2018-05-25T01:05:18.671Z,7.63
2018-05-25T01:07:46.388Z,8.90
2018-05-25T01:10:14.128Z,8.23
2018-05-25T01:12:41.905Z,8.53
2018-05-25T01:15:09.643Z,8.27
2018-05-25T01:17:38.135Z,9.00
2018-05-25T01:20:05.888Z,9.60
2018-05-25T01:22:34.357Z,8.90
2018-05-25T01:25:02.097Z,8.80
2018-05-25T01:27:29.861Z,8.80
2018-05-25T01:29:57.580Z,8.90
2018-05-25T01:32:25.331Z,8.97
2018-05-25T01:34:53.813Z,9.47
2018-05-25T01:37:21.564Z,10.47
2018-05-25T01:39:50.209Z,10.33
2018-05-25T01:42:17.992Z,8.17
2018-05-25T01:44:45.699Z,9.40
2018-05-25T01:47:13.430Z,10.00
2018-05-25T01:49:41.144Z,8.83
2018-05-25T01:52:08.848Z,9.13
2018-05-25T01:54:36.584Z,8.03
2018-05-25T01:57:04.320Z,8.40
2018-05-25T01:59:32.084Z,8.23
2018-05-25T02:01:59.834Z,9.27
2018-05-25T02:04:27.549Z,7.90
2018-05-25T02:06:55.256Z,7.00
2018-05-25T02:09:23.756Z,8.73
2018-05-25T02:11:51.576Z,7.97
2018-05-25T02:14:19.282Z,8.87
2018-05-25T02:16:47.010Z,7.50
2018-05-25T02:19:14.720Z,8.13
2018-05-25T02:21:42.430Z,7.57
2018-05-25T02:24:10.161Z,7.43
2018-05-25T02:26:37.876Z,8.43
2018-05-25T02:29:06.352Z,9.03
2018-05-25T02:31:34.844Z,8.77
2018-05-25T02:34:03.375Z,8.00
2018-05-25T02:36:31.132Z,8.50
2018-05-25T02:38:58.875Z,9.17
2018-05-25T02:41:26.588Z,10.30
2018-05-25T02:43:54.342Z,9.20
2018-05-25T02:46:22.129Z,9.23
2018-05-25T02:48:49.852Z,9.23
2018-05-25T02:51:17.588Z,9.57
2018-05-25T02:53:45.312Z,9.47
2018-05-25T02:56:13.041Z,8.50
2018-05-25T02:58:41.172Z,8.10
2018-05-25T03:01:08.892Z,7.80
2018-05-25T03:03:36.588Z,9.43
2018-05-25T03:06:05.071Z,8.40
2018-05-25T03:08:33.564Z,8.33
2018-05-25T03:11:02.069Z,8.30
2018-05-25T03:13:29.834Z,9.37
2018-05-25T03:15:57.560Z,10.43
2018-05-25T03:18:26.036Z,8.70
2018-05-25T03:20:54.496Z,8.90
2018-05-25T03:23:22.244Z,8.73
2018-05-25T03:25:50.047Z,7.97
2018-05-25T03:28:17.799Z,7.63
2018-05-25T03:30:45.569Z,7.67
2018-05-25T03:33:14.031Z,8.13
2018-05-25T03:35:41.771Z,8.77
2018-05-25T03:38:09.510Z,9.30
2018-05-25T03:40:37.210Z,8.23
2018-05-25T03:43:05.004Z,8.97
2018-05-25T03:45:33.550Z,9.20
2018-05-25T03:48:01.281Z,8.27
2018-05-25T03:50:28.992Z,10.30
2018-05-25T03:52:56.760Z,9.80
2018-05-25T03:55:24.488Z,10.80
2018-05-25T03:57:52.200Z,10.90
2018-05-25T04:00:32.481Z,10.17
2018-05-25T04:03:00.232Z,11.07
2018-05-25T04:05:28.766Z,9.60
2018-05-25T04:07:56.504Z,10.77
2018-05-25T04:10:24.211Z,11.00
2018-05-25T04:12:52.019Z,10.93
2018-05-25T04:15:19.751Z,11.80
2018-05-25T04:17:48.221Z,11.60
2018-05-25T04:20:15.956Z,11.30
2018-05-25T04:22:43.696Z,10.50
2018-05-25T04:25:11.468Z,10.90
2018-05-25T04:27:39.170Z,11.00
2018-05-25T04:30:06.902Z,10.80
2018-05-25T04:32:34.605Z,11.93
2018-05-25T04:35:02.321Z,11.80
2018-05-25T04:37:30.092Z,11.33
2018-05-25T04:39:57.800Z,11.07
2018-05-25T04:42:25.549Z,11.80
2018-05-25T04:44:53.279Z,11.43
2018-05-25T04:47:21.004Z,11.50
2018-05-25T04:49:49.526Z,12.43
2018-05-25T04:52:17.256Z,11.30
2018-05-25T04:54:45.016Z,11.47
2018-05-25T04:57:13.484Z,10.57
2018-05-25T04:59:41.989Z,10.17
2018-05-25T05:02:09.699Z,10.07
2018-05-25T05:04:37.397Z,10.27
2018-05-25T05:07:05.905Z,11.00
2018-05-25T05:09:33.612Z,12.27
2018-05-25T05:12:01.324Z,11.07
2018-05-25T05:14:29.049Z,10.97
2018-05-25T05:16:56.752Z,11.33
2018-05-25T05:19:24.456Z,12.30
2018-05-25T05:21:52.188Z,10.10
2018-05-25T05:24:19.909Z,11.50
2018-05-25T05:26:48.381Z,11.70
2018-05-25T05:29:16.160Z,12.00
2018-05-25T05:31:44.629Z,11.70
2018-05-25T05:34:12.333Z,12.00
2018-05-25T05:36:40.092Z,11.60
2018-05-25T05:39:07.800Z,12.07
2018-05-25T05:41:35.517Z,12.00
2018-05-25T05:44:03.255Z,12.50
2018-05-25T05:46:32.066Z,11.73
2018-05-25T05:48:59.809Z,14.10
2018-05-25T05:51:28.312Z,12.23
2018-05-25T05:53:56.022Z,12.27
2018-05-25T05:56:23.733Z,12.13
2018-05-25T05:58:51.505Z,11.73
2018-05-25T06:01:19.225Z,12.20
2018-05-25T06:03:46.955Z,10.77
2018-05-25T06:06:14.687Z,11.40
2018-05-25T06:08:43.220Z,12.00
2018-05-25T06:11:11.424Z,12.17
2018-05-25T06:13:39.931Z,11.83
2018-05-25T06:16:07.639Z,11.50
2018-05-25T06:18:35.388Z,10.67
2018-05-25T06:21:03.137Z,10.90
2018-05-25T06:23:30.893Z,10.43
2018-05-25T06:25:58.653Z,10.20
2018-05-25T06:28:26.379Z,11.63
2018-05-25T06:30:54.857Z,11.43
2018-05-25T06:33:22.598Z,13.00
2018-05-25T06:35:50.372Z,12.60
2018-05-25T06:38:18.160Z,12.37
2018-05-25T06:40:46.656Z,12.13
2018-05-25T06:43:14.359Z,10.50
2018-05-25T06:45:42.088Z,11.73
2018-05-25T06:48:09.873Z,11.80
2018-05-25T06:50:37.656Z,11.90
2018-05-25T06:53:05.403Z,12.67
2018-05-25T06:55:33.176Z,12.13
2018-05-25T06:58:00.945Z,12.33
2018-05-25T07:00:28.673Z,10.50
2018-05-25T07:02:56.408Z,10.00
2018-05-25T07:05:24.900Z,11.80
2018-05-25T07:07:53.404Z,12.10
2018-05-25T07:10:21.171Z,12.20
2018-05-25T07:12:48.890Z,10.80
2018-05-25T07:15:17.408Z,11.00
2018-05-25T07:17:45.136Z,9.97
2018-05-25T07:20:12.868Z,10.10
2018-05-25T07:22:40.669Z,10.90
2018-05-25T07:25:09.165Z,10.13
2018-05-25T07:27:37.629Z,11.60
2018-05-25T07:30:05.420Z,11.20
2018-05-25T07:32:33.124Z,9.67
2018-05-25T07:35:00.853Z,10.60
2018-05-25T07:37:28.592Z,9.80
2018-05-25T07:39:57.060Z,9.07
2018-05-25T07:42:24.767Z,11.00
2018-05-25T07:44:52.503Z,9.90
2018-05-25T07:47:20.976Z,8.77
2018-05-25T07:49:49.516Z,10.00
2018-05-25T07:52:17.248Z,9.40
2018-05-25T07:54:44.986Z,8.30
2018-05-25T07:57:13.460Z,8.07
2018-05-25T07:59:41.952Z,7.70
2018-05-25T08:02:10.449Z,7.20
2018-05-25T08:04:38.177Z,8.17
2018-05-25T08:07:05.922Z,8.57
2018-05-25T08:09:33.657Z,7.50
2018-05-25T08:12:01.399Z,7.77
2018-05-25T08:14:29.173Z,7.53
2018-05-25T08:16:57.150Z,8.20
2018-05-25T08:19:24.901Z,8.10
2018-05-25T08:21:52.657Z,9.07
2018-05-25T08:24:21.224Z,8.00
2018-05-25T08:26:49.770Z,7.53
2018-05-25T08:29:17.504Z,8.10
2018-05-25T08:31:45.229Z,8.17
2018-05-25T08:34:13.733Z,7.70
2018-05-25T08:36:41.444Z,7.53
2018-05-25T08:39:09.195Z,7.67
2018-05-25T08:41:36.941Z,6.77
2018-05-25T08:44:04.760Z,6.43
2018-05-25T08:46:33.250Z,7.30
2018-05-25T08:49:02.663Z,5.50
2018-05-25T08:51:31.164Z,7.13
2018-05-25T08:53:58.922Z,7.97
2018-05-25T08:56:26.672Z,6.50
2018-05-25T08:58:54.412Z,5.87
2018-05-25T09:01:22.155Z,6.60
2018-05-25T09:03:49.877Z,6.63
2018-05-25T09:06:17.644Z,7.03
2018-05-25T09:08:45.551Z,6.50
2018-05-25T09:11:13.280Z,6.70
2018-05-25T09:13:41.044Z,6.33
2018-05-25T09:16:08.769Z,6.23
2018-05-25T09:18:37.272Z,5.30
2018-05-25T09:21:05.217Z,5.90
2018-05-25T09:23:33.724Z,6.37
2018-05-25T09:26:01.512Z,6.77
2018-05-25T09:28:29.281Z,6.37
2018-05-25T09:30:57.055Z,7.00
2018-05-25T09:33:24.763Z,6.03
2018-05-25T09:35:53.397Z,5.80
2018-05-25T09:38:21.113Z,6.50
2018-05-25T09:40:49.645Z,5.37
2018-05-25T09:43:17.349Z,5.60
2018-05-25T09:45:45.848Z,6.60
2018-05-25T09:48:13.676Z,6.70
2018-05-25T09:50:41.495Z,6.67
2018-05-25T09:53:09.276Z,6.63
2018-05-25T09:55:37.016Z,6.53
2018-05-25T09:58:04.744Z,6.43
2018-05-25T10:00:32.469Z,6.17
2018-05-25T10:03:00.216Z,5.43
2018-05-25T10:05:27.977Z,5.77
2018-05-25T10:07:55.701Z,4.80
2018-05-25T10:10:24.216Z,6.10
2018-05-25T10:12:51.928Z,5.73
2018-05-25T10:15:19.660Z,5.43
2018-05-25T10:17:47.408Z,5.93
2018-05-25T10:20:15.184Z,6.37
2018-05-25T10:22:42.922Z,5.70
2018-05-25T10:25:10.674Z,5.37
2018-05-25T10:27:39.278Z,5.17
2018-05-25T10:30:07.093Z,5.67
2018-05-25T10:32:34.830Z,4.50
2018-05-25T10:35:02.603Z,4.50
2018-05-25T10:37:30.315Z,6.27
2018-05-25T10:39:58.800Z,4.63
2018-05-25T10:42:27.289Z,5.40
2018-05-25T10:44:55.096Z,4.37
2018-05-25T10:47:22.828Z,4.97
2018-05-25T10:49:50.588Z,4.97
2018-05-25T10:52:18.321Z,5.03
2018-05-25T10:54:46.797Z,4.10
2018-05-25T10:57:14.492Z,3.90
2018-05-25T10:59:42.219Z,3.60
2018-05-25T11:02:10.015Z,3.43
2018-05-25T11:04:37.709Z,2.77
2018-05-25T11:07:05.436Z,3.27
2018-05-25T11:09:34.158Z,3.07
2018-05-25T11:12:01.880Z,2.50
2018-05-25T11:14:30.460Z,3.30
2018-05-25T11:16:58.991Z,4.53
2018-05-25T11:19:26.699Z,3.80
2018-05-25T11:21:55.263Z,3.57
2018-05-25T11:24:23.012Z,2.70
2018-05-25T11:26:51.321Z,2.67
2018-05-25T11:29:20.089Z,2.33
2018-05-25T11:31:47.801Z,3.37
2018-05-25T11:34:15.521Z,3.70
2018-05-25T11:36:43.270Z,2.77
2018-05-25T11:39:11.783Z,2.50
2018-05-25T11:41:40.332Z,1.70
2018-05-25T11:44:08.124Z,2.43
2018-05-25T11:46:36.599Z,3.00
2018-05-25T11:49:04.444Z,2.60
2018-05-25T11:51:32.180Z,2.57
2018-05-25T11:53:59.946Z,2.77
2018-05-25T11:56:27.696Z,4.20
2018-05-25T11:58:55.585Z,2.83
2018-05-25T12:01:24.417Z,3.00
2018-05-25T12:03:52.331Z,2.23
2018-05-25T12:06:20.074Z,2.10
2018-05-25T12:08:47.828Z,2.73
2018-05-25T12:11:15.621Z,2.03
2018-05-25T12:13:43.324Z,1.90
2018-05-25T12:16:11.072Z,2.20
2018-05-25T12:18:38.893Z,2.67
2018-05-25T12:21:06.610Z,2.70
2018-05-25T12:23:34.346Z,1.90
2018-05-25T12:26:02.210Z,1.87
2018-05-25T12:28:30.040Z,2.27
2018-05-25T12:30:58.538Z,2.07
2018-05-25T12:33:26.292Z,2.67
2018-05-25T12:35:54.269Z,2.17
2018-05-25T12:38:22.142Z,2.17
2018-05-25T12:40:49.860Z,2.43
2018-05-25T12:43:17.624Z,2.50
2018-05-25T12:45:45.373Z,2.40
2018-05-25T12:48:16.706Z,2.50
2018-05-25T12:50:44.485Z,2.70
2018-05-25T12:53:12.189Z,2.23
2018-05-25T12:55:40.013Z,2.67
2018-05-25T12:58:07.777Z,2.80
2018-05-25T13:00:35.536Z,2.33
2018-05-25T13:03:03.266Z,2.77
2018-05-25T13:05:31.004Z,2.60
2018-05-25T13:07:59.520Z,2.00
2018-05-25T13:10:27.260Z,3.87
2018-05-25T13:12:54.984Z,2.10
2018-05-25T13:15:22.743Z,2.20
2018-05-25T13:17:50.540Z,2.47
2018-05-25T13:20:18.270Z,3.57
2018-05-25T13:22:46.850Z,1.97
2018-05-25T13:25:14.594Z,2.17
2018-05-25T13:27:42.308Z,2.43
2018-05-25T13:30:10.880Z,2.50
2018-05-25T13:32:39.388Z,2.47
2018-05-25T13:35:07.090Z,2.07
2018-05-25T13:37:34.992Z,2.10
2018-05-25T13:40:03.540Z,2.43
2018-05-25T13:42:31.684Z,2.43
2018-05-25T13:44:59.654Z,1.97
2018-05-25T13:47:27.358Z,1.50
2018-05-25T13:49:55.907Z,2.10
2018-05-25T13:52:24.412Z,1.77
2018-05-25T13:54:52.128Z,2.57
2018-05-25T13:57:19.843Z,1.73
2018-05-25T13:59:47.608Z,2.20
2018-05-25T14:02:15.356Z,2.17
2018-05-25T14:04:43.304Z,2.43
2018-05-25T14:07:11.027Z,1.77
2018-05-25T14:09:39.490Z,2.33
2018-05-25T14:12:07.229Z,2.83
2018-05-25T14:14:36.365Z,2.70
2018-05-25T14:17:04.878Z,2.67
2018-05-25T14:19:32.668Z,2.80
2018-05-25T14:22:00.367Z,2.43
2018-05-25T14:24:28.111Z,2.23
2018-05-25T14:26:55.862Z,2.10
2018-05-25T14:29:23.574Z,2.33
2018-05-25T14:31:52.048Z,2.33
2018-05-25T14:34:20.552Z,2.87
2018-05-25T14:36:48.442Z,2.60
2018-05-25T14:39:16.940Z,1.90
2018-05-25T14:41:44.680Z,2.67
2018-05-25T14:44:12.392Z,2.60
2018-05-25T14:46:41.104Z,2.70
2018-05-25T14:49:09.660Z,2.33
2018-05-25T14:51:37.369Z,2.50
2018-05-25T14:54:05.109Z,2.37
2018-05-25T14:56:33.603Z,2.83
2018-05-25T14:59:01.355Z,2.03
2018-05-25T15:01:29.728Z,2.70
2018-05-25T15:03:58.228Z,1.77
2018-05-25T15:06:26.108Z,3.23
2018-05-25T15:08:54.188Z,1.97
2018-05-25T15:11:22.139Z,2.40
2018-05-25T15:13:49.872Z,2.73
2018-05-25T15:16:18.515Z,2.90
2018-05-25T15:18:46.212Z,2.03
2018-05-25T15:21:14.004Z,2.37
2018-05-25T15:23:42.547Z,2.23
2018-05-25T15:26:10.320Z,2.37
2018-05-25T15:28:38.158Z,2.60
2018-05-25T15:31:06.098Z,2.00
2018-05-25T15:33:33.616Z,2.60
2018-05-25T15:36:01.614Z,2.30
2018-05-25T15:38:29.413Z,2.03
2018-05-25T15:40:57.173Z,2.10
2018-05-25T15:43:24.888Z,1.97
2018-05-25T15:45:53.358Z,1.67
2018-05-25T15:48:21.092Z,2.00
2018-05-25T15:50:49.012Z,2.47
2018-05-25T15:53:17.485Z,2.10
2018-05-25T15:55:45.952Z,2.10
2018-05-25T15:58:14.497Z,2.00
2018-05-25T16:00:42.252Z,1.90
2018-05-25T16:03:09.968Z,2.70
2018-05-25T16:05:38.500Z,2.37
2018-05-25T16:08:06.260Z,2.63
2018-05-25T16:10:34.068Z,2.10
2018-05-25T16:13:02.910Z,2.20
2018-05-25T16:15:30.669Z,3.20
2018-05-25T16:17:58.461Z,2.73
2018-05-25T16:20:26.205Z,2.10
2018-05-25T16:22:53.904Z,2.40
2018-05-25T16:25:21.625Z,2.03
2018-05-25T16:27:49.633Z,2.20
2018-05-25T16:30:17.342Z,2.40
2018-05-25T16:32:45.067Z,2.30
2018-05-25T16:35:12.798Z,2.30
2018-05-25T16:37:40.548Z,2.80
2018-05-25T16:40:08.357Z,2.50
2018-05-25T16:42:36.093Z,2.47
2018-05-25T16:45:04.109Z,2.20
2018-05-25T16:47:32.573Z,2.83
2018-05-25T16:50:00.308Z,2.97
2018-05-25T16:52:28.074Z,2.20
2018-05-25T16:54:55.799Z,2.77
2018-05-25T16:57:23.539Z,2.83
2018-05-25T16:59:52.059Z,2.37
2018-05-25T17:02:20.633Z,3.10
2018-05-25T17:04:48.485Z,3.00
2018-05-25T17:07:16.234Z,2.30
2018-05-25T17:09:43.984Z,2.80
2018-05-25T17:12:11.722Z,3.00
2018-05-25T17:14:39.428Z,3.10
2018-05-25T17:17:07.934Z,2.50
2018-05-25T17:19:35.673Z,2.50
2018-05-25T17:22:04.148Z,3.00
2018-05-25T17:24:32.679Z,3.30
2018-05-25T17:27:00.385Z,3.03
2018-05-25T17:29:28.157Z,3.30
2018-05-25T17:31:56.668Z,2.90
2018-05-25T17:34:24.363Z,3.00
2018-05-25T17:36:52.069Z,3.23
2018-05-25T17:39:20.559Z,3.20
2018-05-25T17:41:49.079Z,2.83
2018-05-25T17:44:16.788Z,2.73
2018-05-25T17:46:45.316Z,2.90
2018-05-25T17:49:13.404Z,3.20
2018-05-25T17:51:41.100Z,2.93
2018-05-25T17:54:09.600Z,3.10
2018-05-25T17:56:37.333Z,3.10
2018-05-25T17:59:05.056Z,2.50
2018-05-25T18:01:32.791Z,2.47
2018-05-25T18:04:00.533Z,3.27
2018-05-25T18:06:29.014Z,2.50
2018-05-25T18:08:57.539Z,3.10
2018-05-25T18:11:25.240Z,2.80
2018-05-25T18:13:52.960Z,2.93
2018-05-25T18:16:20.790Z,3.03
2018-05-25T18:18:49.292Z,2.40
2018-05-25T18:21:17.006Z,2.20
2018-05-25T18:23:44.811Z,3.17
2018-05-25T18:26:13.312Z,2.93
2018-05-25T18:28:41.024Z,2.43
2018-05-25T18:31:08.801Z,4.10
2018-05-25T18:33:36.500Z,2.70
2018-05-25T18:36:04.277Z,3.00
2018-05-25T18:38:32.144Z,3.10
2018-05-25T18:40:59.866Z,3.13
2018-05-25T18:43:28.352Z,5.00
2018-05-25T18:45:56.857Z,9.40
2018-05-25T18:48:24.939Z,7.23
2018-05-25T18:50:53.437Z,5.30
2018-05-25T18:53:21.185Z,3.60
2018-05-25T18:55:48.936Z,4.77
2018-05-25T18:58:16.701Z,3.50
2018-05-25T19:00:44.442Z,3.20
2018-05-25T19:03:12.932Z,3.00
2018-05-25T19:05:40.668Z,2.97
2018-05-25T19:08:08.436Z,3.40
2018-05-25T19:10:37.049Z,3.70
2018-05-25T19:13:04.768Z,3.83
2018-05-25T19:15:32.621Z,3.33
2018-05-25T19:18:00.372Z,3.50
2018-05-25T19:20:28.203Z,3.60
2018-05-25T19:22:58.063Z,4.07
2018-05-25T19:25:25.861Z,4.57
2018-05-25T19:27:55.241Z,4.30
2018-05-25T19:30:22.961Z,4.77
2018-05-25T19:32:51.445Z,4.90
2018-05-25T19:35:19.177Z,4.13
2018-05-25T19:37:47.713Z,5.30
2018-05-25T19:40:15.438Z,4.10
2018-05-25T19:42:43.197Z,3.13
2018-05-25T19:45:10.913Z,3.90
2018-05-25T19:47:38.636Z,3.10
2018-05-25T19:50:06.423Z,3.17
2018-05-25T19:52:35.084Z,3.23
2018-05-25T19:55:02.832Z,4.20
2018-05-25T19:57:31.341Z,2.90
2018-05-25T19:59:59.048Z,2.70
2018-05-25T20:02:26.750Z,3.20
2018-05-25T20:04:54.473Z,3.80
2018-05-25T20:07:22.184Z,3.97
2018-05-25T20:09:49.883Z,4.37
2018-05-25T20:12:17.921Z,4.47
2018-05-25T20:14:46.403Z,4.40
2018-05-25T20:17:16.618Z,4.47
2018-05-25T20:19:45.511Z,3.90
2018-05-25T20:22:16.810Z,3.40
2018-05-25T20:24:46.602Z,3.77
2018-05-25T20:27:16.767Z,3.20
2018-05-25T20:29:45.081Z,2.90
2018-05-25T20:32:14.488Z,4.20
2018-05-25T20:34:43.966Z,3.90
2018-05-25T20:37:12.704Z,3.30
2018-05-25T20:39:41.236Z,4.43
2018-05-25T20:42:08.976Z,5.20
2018-05-25T20:44:38.212Z,4.13
2018-05-25T20:47:06.000Z,3.03
2018-05-25T20:49:33.820Z,3.50
2018-05-25T20:52:01.533Z,3.13
2018-05-25T20:54:29.309Z,2.90
2018-05-25T20:56:57.060Z,3.37
2018-05-25T20:59:26.987Z,3.50
2018-05-25T21:01:54.748Z,3.00
2018-05-25T21:04:22.520Z,3.90
2018-05-25T21:06:52.829Z,4.23
2018-05-25T21:09:20.725Z,3.70
2018-05-25T21:11:49.201Z,3.20
2018-05-25T21:14:17.724Z,3.50
2018-05-25T21:16:46.042Z,3.47
2018-05-25T21:19:16.321Z,4.00
2018-05-25T21:21:44.064Z,3.10
2018-05-25T21:24:12.045Z,3.27
2018-05-25T21:26:42.640Z,3.50
2018-05-25T21:29:11.168Z,3.03
2018-05-25T21:31:38.920Z,3.40
2018-05-25T21:34:06.950Z,2.93
2018-05-25T21:36:35.331Z,2.90
2018-05-25T21:39:05.920Z,3.70
2018-05-25T21:41:33.684Z,3.20
2018-05-25T21:44:01.461Z,3.53
2018-05-25T21:46:29.203Z,3.37
2018-05-25T21:48:56.917Z,2.27
2018-05-25T21:51:25.092Z,1.80
2018-05-25T21:53:52.836Z,3.00
2018-05-25T21:56:20.585Z,2.50
2018-05-25T21:58:48.331Z,3.30
2018-05-25T22:01:16.046Z,3.10
2018-05-25T22:03:43.772Z,2.47
2018-05-25T22:06:11.494Z,2.50
2018-05-25T22:08:39.965Z,2.50
2018-05-25T22:11:08.473Z,1.80
2018-05-25T22:13:36.228Z,2.20
2018-05-25T22:16:04.030Z,2.70
2018-05-25T22:18:31.779Z,2.20
2018-05-25T22:20:59.491Z,3.20
2018-05-25T22:23:27.203Z,2.17
2018-05-25T22:25:54.982Z,3.10
2018-05-25T22:28:22.719Z,1.83
2018-05-25T22:30:50.461Z,3.50
2018-05-25T22:33:18.978Z,2.20
2018-05-25T22:35:46.683Z,3.00
2018-05-25T22:38:14.407Z,3.67
2018-05-25T22:40:42.208Z,2.57
2018-05-25T22:43:21.908Z,3.40
2018-05-25T22:46:01.623Z,2.90
2018-05-25T22:48:42.095Z,3.50
2018-05-25T22:51:21.778Z,3.20
2018-05-25T22:53:54.668Z,4.30
2018-05-25T22:56:22.529Z,3.57
2018-05-25T22:58:50.271Z,4.53
2018-05-25T23:01:18.101Z,3.87
2018-05-25T23:03:47.442Z,3.77
2018-05-25T23:06:15.249Z,3.13
2018-05-25T23:08:43.012Z,3.37
2018-05-25T23:11:10.784Z,3.40
2018-05-25T23:13:38.579Z,2.70
2018-05-25T23:16:06.450Z,3.17
2018-05-25T23:18:34.258Z,3.63
2018-05-25T23:21:02.039Z,2.70
2018-05-25T23:23:29.828Z,2.40
2018-05-25T23:25:57.661Z,2.80
2018-05-25T23:28:25.439Z,2.93
2018-05-25T23:30:53.210Z,2.70
2018-05-25T23:33:21.727Z,2.37
2018-05-25T23:35:49.428Z,2.70
2018-05-25T23:38:17.218Z,3.17
2018-05-25T23:40:45.751Z,2.30
2018-05-25T23:43:13.468Z,2.30
2018-05-25T23:45:41.948Z,2.30
2018-05-25T23:48:10.523Z,2.43
2018-05-25T23:50:39.046Z,2.87
2018-05-25T23:53:06.816Z,2.73
2018-05-25T23:55:34.549Z,2.30
2018-05-25T23:58:03.012Z,2.40
